createdAt,value
2022-09-28T00:01:13.429Z,3.70
2022-09-28T00:03:40.182Z,3.90
2022-09-28T00:06:10.099Z,3.70
2022-09-28T00:08:37.283Z,3.75
2022-09-28T00:11:06.546Z,4.20
2022-09-28T00:13:34.127Z,4.00
2022-09-28T00:16:01.724Z,3.95
2022-09-28T00:18:28.929Z,3.78
2022-09-28T00:21:08.093Z,3.78
2022-09-28T00:23:56.167Z,3.88
2022-09-28T00:26:23.636Z,3.75
2022-09-28T00:28:59.206Z,4.28
2022-09-28T00:31:28.090Z,3.97
2022-09-28T00:33:56.947Z,3.47
2022-09-28T00:36:24.779Z,3.58
2022-09-28T00:38:52.285Z,2.87
2022-09-28T00:41:19.105Z,3.45
2022-09-28T00:43:46.235Z,3.03
2022-09-28T00:46:19.360Z,3.38
2022-09-28T00:48:56.944Z,3.05
2022-09-28T00:51:25.170Z,3.38
2022-09-28T00:53:53.077Z,2.78
2022-09-28T00:56:24.953Z,3.65
2022-09-28T00:58:54.576Z,3.35
2022-09-28T01:01:21.769Z,2.83
2022-09-28T01:03:48.847Z,2.88
2022-09-28T01:06:20.443Z,3.25
2022-09-28T01:08:51.214Z,2.60
2022-09-28T01:11:19.370Z,2.65
2022-09-28T01:13:48.684Z,2.75
2022-09-28T01:16:34.245Z,2.38
2022-09-28T01:19:33.486Z,2.42
2022-09-28T01:22:24.425Z,2.47
2022-09-28T01:25:25.821Z,2.70
2022-09-28T01:28:04.353Z,2.50
2022-09-28T01:30:43.549Z,2.45
2022-09-28T01:33:22.531Z,2.45
2022-09-28T01:36:02.582Z,2.08
2022-09-28T01:38:34.082Z,2.17
2022-09-28T01:41:01.214Z,2.20
2022-09-28T01:43:29.411Z,1.85
2022-09-28T01:46:04.999Z,2.53
2022-09-28T01:48:38.056Z,1.75
2022-09-28T01:51:10.207Z,1.80
2022-09-28T01:53:45.945Z,1.90
2022-09-28T01:56:21.390Z,2.03
2022-09-28T01:58:54.487Z,1.30
2022-09-28T02:01:28.105Z,1.73
2022-09-28T02:04:05.404Z,1.85
2022-09-28T02:06:38.915Z,1.42
2022-09-28T02:09:11.650Z,1.70
2022-09-28T02:11:45.043Z,1.80
2022-09-28T02:14:14.585Z,1.77
2022-09-28T02:16:43.849Z,1.60
2022-09-28T02:19:20.100Z,1.40
2022-09-28T02:22:03.503Z,1.90
2022-09-28T02:24:45.148Z,1.60
2022-09-28T02:27:21.786Z,1.95
2022-09-28T02:29:49.457Z,1.67
2022-09-28T02:32:19.626Z,1.50
2022-09-28T02:34:46.758Z,1.50
2022-09-28T02:37:13.648Z,1.60
2022-09-28T02:39:40.362Z,1.40
2022-09-28T02:42:44.640Z,1.70
2022-09-28T02:45:35.307Z,1.45
2022-09-28T02:48:41.288Z,1.60
2022-09-28T02:51:44.601Z,1.50
2022-09-28T02:54:50.409Z,1.70
2022-09-28T02:57:45.328Z,1.95
2022-09-28T03:00:18.682Z,1.60
2022-09-28T03:02:51.117Z,1.52
2022-09-28T03:05:23.859Z,1.90
2022-09-28T03:08:00.213Z,1.70
2022-09-28T03:10:43.131Z,1.92
2022-09-28T03:13:12.077Z,1.85
2022-09-28T03:15:38.744Z,2.00
2022-09-28T03:18:05.531Z,1.77
2022-09-28T03:20:33.542Z,1.50
2022-09-28T03:23:23.201Z,1.52
2022-09-28T03:25:47.575Z,1.52
2022-09-28T03:28:14.289Z,1.17
2022-09-28T03:30:42.880Z,1.30
2022-09-28T03:33:09.597Z,1.05
2022-09-28T03:35:36.311Z,1.00
2022-09-28T03:38:02.976Z,0.90
2022-09-28T03:40:29.715Z,0.80
2022-09-28T03:42:56.508Z,0.90
2022-09-28T03:45:23.191Z,0.80
2022-09-28T03:47:49.926Z,0.80
2022-09-28T03:50:16.630Z,0.55
2022-09-28T03:52:43.453Z,0.70
2022-09-28T03:55:11.099Z,0.82
2022-09-28T03:57:38.377Z,0.73
2022-09-28T04:00:05.810Z,0.68
2022-09-28T04:02:34.705Z,0.63
2022-09-28T04:05:01.692Z,0.60
2022-09-28T04:07:31.018Z,0.60
2022-09-28T04:09:58.222Z,0.57
2022-09-28T04:12:24.909Z,0.60
2022-09-28T04:14:51.554Z,0.55
2022-09-28T04:17:18.272Z,0.50
2022-09-28T04:19:44.947Z,0.45
2022-09-28T04:22:11.687Z,0.60
2022-09-28T04:24:38.388Z,0.43
2022-09-28T04:27:23.643Z,0.47
2022-09-28T04:29:50.279Z,0.60
2022-09-28T04:32:16.970Z,0.50
2022-09-28T04:34:44.447Z,0.43
2022-09-28T04:37:11.540Z,0.73
2022-09-28T04:39:38.243Z,0.60
2022-09-28T04:42:05.584Z,0.57
2022-09-28T04:44:32.214Z,0.50
2022-09-28T04:47:02.886Z,0.60
2022-09-28T04:49:31.733Z,0.47
2022-09-28T04:51:58.375Z,0.60
2022-09-28T04:54:25.036Z,0.70
2022-09-28T04:56:52.892Z,0.50
2022-09-28T04:59:19.603Z,0.57
2022-09-28T05:01:47.505Z,0.73
2022-09-28T05:04:14.165Z,0.68
2022-09-28T05:06:40.984Z,0.68
2022-09-28T05:09:09.357Z,1.13
2022-09-28T05:11:36.151Z,0.70
2022-09-28T05:14:03.044Z,0.70
2022-09-28T05:16:31.007Z,0.70
2022-09-28T05:18:57.771Z,0.70
2022-09-28T05:21:26.355Z,0.73
2022-09-28T05:23:56.079Z,0.73
2022-09-28T05:26:23.173Z,0.60
2022-09-28T05:28:49.973Z,0.63
2022-09-28T05:31:17.270Z,0.80
2022-09-28T05:33:44.051Z,0.60
2022-09-28T05:36:11.119Z,0.60
2022-09-28T05:38:37.991Z,0.60
2022-09-28T05:41:06.743Z,0.70
2022-09-28T05:43:34.905Z,0.90
2022-09-28T05:46:02.368Z,0.73
2022-09-28T05:48:29.749Z,0.60
2022-09-28T05:50:56.477Z,0.90
2022-09-28T05:53:23.199Z,0.60
2022-09-28T05:55:49.870Z,0.50
2022-09-28T05:58:16.917Z,0.50
2022-09-28T06:00:44.197Z,0.60
2022-09-28T06:03:14.017Z,0.77
2022-09-28T06:05:41.328Z,0.47
2022-09-28T06:08:12.521Z,0.40
2022-09-28T06:10:40.279Z,0.70
2022-09-28T06:13:07.840Z,0.50
2022-09-28T06:15:36.127Z,0.80
2022-09-28T06:18:04.614Z,0.68
2022-09-28T06:20:36.010Z,1.23
2022-09-28T06:23:02.812Z,1.30
2022-09-28T06:25:29.746Z,0.90
2022-09-28T06:28:10.773Z,1.02
2022-09-28T06:30:39.006Z,1.10
2022-09-28T06:33:08.319Z,1.20
2022-09-28T06:35:35.335Z,2.67
2022-09-28T06:38:02.333Z,2.58
2022-09-28T06:40:29.321Z,4.28
2022-09-28T06:43:01.313Z,2.70
2022-09-28T06:45:29.798Z,3.88
2022-09-28T06:47:58.732Z,2.53
2022-09-28T06:50:27.772Z,2.53
2022-09-28T06:52:55.192Z,2.00
2022-09-28T06:55:22.660Z,2.10
2022-09-28T06:58:07.359Z,1.50
2022-09-28T07:00:35.878Z,1.80
2022-09-28T07:03:04.295Z,1.05
2022-09-28T07:05:34.891Z,1.20
2022-09-28T07:08:02.411Z,1.40
2022-09-28T07:10:30.596Z,1.10
2022-09-28T07:13:01.853Z,1.15
2022-09-28T07:15:29.565Z,1.10
2022-09-28T07:18:03.553Z,0.90
2022-09-28T07:20:38.772Z,1.00
2022-09-28T07:23:18.329Z,1.55
2022-09-28T07:25:47.943Z,1.55
2022-09-28T07:28:16.110Z,1.40
2022-09-28T07:30:44.779Z,1.45
2022-09-28T07:33:14.430Z,1.45
2022-09-28T07:35:42.403Z,1.20
2022-09-28T07:38:10.619Z,1.70
2022-09-28T07:40:56.388Z,1.75
2022-09-28T07:43:23.175Z,1.60
2022-09-28T07:45:52.497Z,1.48
2022-09-28T07:48:19.695Z,1.52
2022-09-28T07:50:53.761Z,1.33
2022-09-28T07:53:22.351Z,1.88
2022-09-28T07:55:54.012Z,1.70
2022-09-28T07:58:21.063Z,1.48
2022-09-28T08:00:49.085Z,1.80
2022-09-28T08:03:22.453Z,1.30
2022-09-28T08:05:49.841Z,1.60
2022-09-28T08:08:16.576Z,1.52
2022-09-28T08:10:47.105Z,1.55
2022-09-28T08:13:15.239Z,1.50
2022-09-28T08:15:42.209Z,1.50
2022-09-28T08:18:09.298Z,1.48
2022-09-28T08:20:54.593Z,1.73
2022-09-28T08:23:21.343Z,1.67
2022-09-28T08:25:49.185Z,1.13
2022-09-28T08:28:20.141Z,1.20
2022-09-28T08:30:47.702Z,1.00
2022-09-28T08:33:15.683Z,0.90
2022-09-28T08:35:42.558Z,0.80
2022-09-28T08:38:10.908Z,0.70
2022-09-28T08:41:08.415Z,0.80
2022-09-28T08:43:52.361Z,0.80
2022-09-28T08:46:26.358Z,0.60
2022-09-28T08:49:25.343Z,1.08
2022-09-28T08:54:29.079Z,0.40
2022-09-28T08:57:03.224Z,0.90
2022-09-28T08:59:53.312Z,0.70
2022-09-28T09:02:34.753Z,0.65
2022-09-28T09:05:05.008Z,0.60
2022-09-28T09:08:05.306Z,0.43
2022-09-28T09:10:53.797Z,0.40
2022-09-28T09:15:56.919Z,0.30
2022-09-28T09:18:48.177Z,0.40
2022-09-28T09:21:34.829Z,0.50
2022-09-28T09:24:27.415Z,0.75
2022-09-28T09:27:30.306Z,0.40
2022-09-28T09:30:13.047Z,0.30
2022-09-28T09:33:07.247Z,0.38
2022-09-28T09:36:10.943Z,0.40
2022-09-28T09:39:19.397Z,0.40
2022-09-28T09:42:28.127Z,0.30
2022-09-28T09:45:11.316Z,0.30
2022-09-28T09:47:50.576Z,0.40
2022-09-28T09:50:55.799Z,0.20
2022-09-28T09:53:38.474Z,0.20
2022-09-28T09:56:34.582Z,0.47
2022-09-28T09:59:15.695Z,0.57
2022-09-28T10:01:42.625Z,0.20
2022-09-28T10:04:21.556Z,0.20
2022-09-28T10:06:50.827Z,0.22
2022-09-28T10:09:25.658Z,0.30
2022-09-28T10:11:54.004Z,0.20
2022-09-28T10:14:23.990Z,0.30
2022-09-28T10:16:53.705Z,0.28
2022-09-28T10:19:37.386Z,0.30
2022-09-28T10:22:06.487Z,0.47
2022-09-28T10:24:41.884Z,0.20
2022-09-28T10:27:23.917Z,0.28
2022-09-28T10:29:59.869Z,0.20
2022-09-28T10:32:36.373Z,0.30
2022-09-28T10:35:18.447Z,0.28
2022-09-28T10:38:06.268Z,0.52
2022-09-28T10:40:48.032Z,0.38
2022-09-28T10:43:36.639Z,0.40
2022-09-28T10:48:48.027Z,0.30
2022-09-28T10:51:14.782Z,0.40
2022-09-28T10:53:41.625Z,0.30
2022-09-28T10:56:20.614Z,0.38
2022-09-28T10:58:48.357Z,0.50
2022-09-28T11:01:19.099Z,0.38
2022-09-28T11:03:55.261Z,0.25
2022-09-28T11:06:36.135Z,0.30
2022-09-28T11:09:24.626Z,0.63
2022-09-28T11:11:54.069Z,0.30
2022-09-28T11:14:42.210Z,0.30
2022-09-28T11:17:29.135Z,0.30
2022-09-28T11:19:58.532Z,0.30
2022-09-28T11:22:26.680Z,0.30
2022-09-28T11:25:14.723Z,0.20
2022-09-28T11:27:41.739Z,0.30
2022-09-28T11:30:38.183Z,0.40
2022-09-28T11:33:20.211Z,0.20
2022-09-28T11:36:13.322Z,0.20
2022-09-28T11:38:47.503Z,0.20
2022-09-28T11:41:30.406Z,0.30
2022-09-28T11:44:15.842Z,0.30
2022-09-28T11:47:16.175Z,0.40
2022-09-28T11:50:01.281Z,0.40
2022-09-28T11:52:36.966Z,0.25
2022-09-28T11:55:13.301Z,0.20
2022-09-28T11:57:45.160Z,0.50
2022-09-28T12:00:19.445Z,0.30
2022-09-28T12:02:53.382Z,0.30
2022-09-28T12:05:28.088Z,0.28
2022-09-28T12:08:17.170Z,0.15
2022-09-28T12:10:58.087Z,0.20
2022-09-28T12:13:29.694Z,0.55
2022-09-28T12:18:56.625Z,0.30
2022-09-28T12:21:48.259Z,0.30
2022-09-28T12:24:45.552Z,0.38
2022-09-28T12:27:14.939Z,0.30
2022-09-28T12:29:50.374Z,0.47
2022-09-28T12:32:40.195Z,0.68
2022-09-28T12:35:46.844Z,0.50
2022-09-28T12:38:22.116Z,0.40
2022-09-28T12:41:03.585Z,0.30
2022-09-28T12:43:40.560Z,0.40
2022-09-28T12:46:31.392Z,0.38
2022-09-28T12:51:59.926Z,0.40
2022-09-28T12:54:38.787Z,0.57
2022-09-28T12:57:30.732Z,0.40
2022-09-28T13:00:06.671Z,0.40
2022-09-28T13:03:10.858Z,0.52
2022-09-28T13:05:56.273Z,0.30
2022-09-28T13:08:45.734Z,0.30
2022-09-28T13:11:44.192Z,0.30
2022-09-28T13:14:55.005Z,0.40
2022-09-28T13:18:01.703Z,0.40
2022-09-28T13:20:44.575Z,0.20
2022-09-28T13:23:20.110Z,0.22
2022-09-28T13:25:53.148Z,0.20
2022-09-28T13:28:26.191Z,0.20
2022-09-28T13:30:55.953Z,0.28
2022-09-28T13:33:38.254Z,0.30
2022-09-28T13:36:27.794Z,0.20
2022-09-28T13:38:56.681Z,0.30
2022-09-28T13:41:29.761Z,0.28
2022-09-28T13:44:16.711Z,0.10
2022-09-28T13:47:08.557Z,0.20
2022-09-28T13:49:58.307Z,0.20
2022-09-28T13:52:47.789Z,0.10
2022-09-28T13:55:40.343Z,0.10
2022-09-28T13:58:22.439Z,0.10
2022-09-28T14:00:53.496Z,0.10
2022-09-28T14:03:41.284Z,0.10
2022-09-28T14:06:21.378Z,0.20
2022-09-28T14:09:15.794Z,0.20
2022-09-28T14:11:42.558Z,0.30
2022-09-28T14:14:11.818Z,0.30
2022-09-28T14:16:40.253Z,0.28
2022-09-28T14:19:31.093Z,0.20
2022-09-28T14:22:19.567Z,0.20
2022-09-28T14:27:42.612Z,0.40
2022-09-28T14:30:12.227Z,0.40
2022-09-28T14:32:47.646Z,0.57
2022-09-28T14:35:23.746Z,0.40
2022-09-28T14:38:13.982Z,0.40
2022-09-28T14:41:11.102Z,0.40
2022-09-28T14:44:02.704Z,0.30
2022-09-28T14:46:38.038Z,0.40
2022-09-28T14:49:17.451Z,0.40
2022-09-28T14:51:55.863Z,0.32
2022-09-28T14:54:40.619Z,0.50
2022-09-28T14:57:14.464Z,0.30
2022-09-28T14:59:43.779Z,0.60
2022-09-28T15:02:24.703Z,0.60
2022-09-28T15:05:10.785Z,0.57
2022-09-28T15:07:52.421Z,0.50
2022-09-28T15:10:27.469Z,0.60
2022-09-28T15:12:56.821Z,0.50
2022-09-28T15:15:34.394Z,0.47
2022-09-28T15:18:43.707Z,0.60
2022-09-28T15:21:12.197Z,0.60
2022-09-28T15:23:44.628Z,0.30
2022-09-28T15:26:31.640Z,0.40
2022-09-28T15:28:59.711Z,0.40
2022-09-28T15:31:28.267Z,0.43
2022-09-28T15:36:46.903Z,0.60
2022-09-28T15:39:25.591Z,0.50
2022-09-28T15:41:52.669Z,0.50
2022-09-28T15:44:29.505Z,0.47
2022-09-28T15:47:24.868Z,0.50
2022-09-28T15:50:09.216Z,0.65
2022-09-28T15:52:40.702Z,0.32
2022-09-28T15:55:25.638Z,0.40
2022-09-28T15:58:07.897Z,0.52
2022-09-28T16:00:35.492Z,0.98
2022-09-28T16:03:27.763Z,0.60
2022-09-28T16:05:57.209Z,0.80
2022-09-28T16:08:45.410Z,0.60
2022-09-28T16:11:23.919Z,0.47
2022-09-28T16:14:04.467Z,0.50
2022-09-28T16:16:46.480Z,1.00
2022-09-28T16:19:26.954Z,0.50
2022-09-28T16:21:56.395Z,0.30
2022-09-28T16:24:35.937Z,0.30
2022-09-28T16:27:08.798Z,0.70
2022-09-28T16:29:41.235Z,0.30
2022-09-28T16:32:28.239Z,0.30
2022-09-28T16:35:12.725Z,0.30
2022-09-28T16:37:43.508Z,0.40
2022-09-28T16:40:10.855Z,2.20
2022-09-28T16:42:40.028Z,1.90
2022-09-28T16:45:09.627Z,1.27
2022-09-28T16:47:36.389Z,0.90
2022-09-28T16:50:06.713Z,0.50
2022-09-28T16:52:56.781Z,1.00
2022-09-28T16:55:39.912Z,0.82
2022-09-28T16:58:08.159Z,0.80
2022-09-28T17:00:35.033Z,1.00
2022-09-28T17:03:02.293Z,2.33
2022-09-28T17:05:29.514Z,2.00
2022-09-28T17:08:04.291Z,1.20
2022-09-28T17:11:02.613Z,1.40
2022-09-28T17:13:33.708Z,1.10
2022-09-28T17:16:32.520Z,0.90
2022-09-28T17:19:05.683Z,1.00
2022-09-28T17:23:59.049Z,1.40
2022-09-28T17:26:30.728Z,1.85
2022-09-28T17:28:59.385Z,2.00
2022-09-28T17:33:54.474Z,2.35
2022-09-28T17:36:21.699Z,1.70
2022-09-28T17:38:51.653Z,3.38
2022-09-28T17:41:20.992Z,4.40
2022-09-28T17:43:48.742Z,4.20
2022-09-28T17:46:27.500Z,2.72
2022-09-28T17:48:54.959Z,2.00
2022-09-28T17:51:22.526Z,0.90
2022-09-28T17:53:49.432Z,2.17
2022-09-28T17:56:16.178Z,1.90
2022-09-28T17:58:42.954Z,1.75
2022-09-28T18:01:10.207Z,1.30
2022-09-28T18:03:38.424Z,1.80
2022-09-28T18:06:13.055Z,2.78
2022-09-28T18:08:39.907Z,2.88
2022-09-28T18:11:06.655Z,3.80
2022-09-28T18:13:33.362Z,3.70
2022-09-28T18:16:00.301Z,4.00
2022-09-28T18:18:27.116Z,4.30
2022-09-28T18:20:53.761Z,3.47
2022-09-28T18:23:20.527Z,3.30
2022-09-28T18:25:48.026Z,3.28
2022-09-28T18:28:15.072Z,2.95
2022-09-28T18:30:44.388Z,2.50
2022-09-28T18:33:12.750Z,2.08
2022-09-28T18:35:39.760Z,1.90
2022-09-28T18:38:07.033Z,2.22
2022-09-28T18:40:35.525Z,1.92
2022-09-28T18:43:02.983Z,1.70
2022-09-28T18:45:29.969Z,1.70
2022-09-28T18:47:57.694Z,1.58
2022-09-28T18:50:25.558Z,1.30
2022-09-28T18:52:52.534Z,1.27
2022-09-28T18:55:19.465Z,1.13
2022-09-28T18:57:47.474Z,1.17
2022-09-28T19:00:15.203Z,1.40
2022-09-28T19:02:42.414Z,1.27
2022-09-28T19:05:09.632Z,2.30
2022-09-28T19:07:36.341Z,2.67
2022-09-28T19:10:03.416Z,3.78
2022-09-28T19:12:30.184Z,4.03
2022-09-28T19:14:56.844Z,3.47
2022-09-28T19:17:23.644Z,3.40
2022-09-28T19:19:52.067Z,3.03
2022-09-28T19:22:18.739Z,3.55
2022-09-28T19:24:45.489Z,3.45
2022-09-28T19:27:12.400Z,3.30
2022-09-28T19:29:39.036Z,2.40
2022-09-28T19:32:05.772Z,2.40
2022-09-28T19:34:32.418Z,1.92
2022-09-28T19:37:03.719Z,2.90
2022-09-28T19:39:31.035Z,2.50
2022-09-28T19:41:59.804Z,2.67
2022-09-28T19:47:08.799Z,2.40
2022-09-28T19:49:37.980Z,1.90
2022-09-28T19:52:15.692Z,1.60
2022-09-28T19:54:54.335Z,2.00
2022-09-28T19:57:21.038Z,2.53
2022-09-28T19:59:52.340Z,2.83
2022-09-28T20:02:20.075Z,3.20
2022-09-28T20:04:47.087Z,3.70
2022-09-28T20:07:14.320Z,3.10
2022-09-28T20:09:41.997Z,2.47
2022-09-28T20:12:09.482Z,2.13
2022-09-28T20:14:38.252Z,1.80
2022-09-28T20:17:07.512Z,2.00
2022-09-28T20:19:35.025Z,2.10
2022-09-28T20:22:03.173Z,2.00
2022-09-28T20:24:31.300Z,2.20
2022-09-28T20:26:58.330Z,2.38
2022-09-28T20:29:25.194Z,2.40
2022-09-28T20:31:52.050Z,2.55
2022-09-28T20:34:19.066Z,3.03
2022-09-28T20:36:45.722Z,3.17
2022-09-28T20:39:13.395Z,2.83
2022-09-28T20:41:40.317Z,2.90
2022-09-28T20:44:07.449Z,3.50
2022-09-28T20:46:35.446Z,3.20
2022-09-28T20:49:02.798Z,3.30
2022-09-28T20:51:29.492Z,3.10
2022-09-28T20:53:57.847Z,3.80
2022-09-28T20:56:37.439Z,3.35
2022-09-28T20:59:05.146Z,3.67
2022-09-28T21:01:31.909Z,3.80
2022-09-28T21:04:00.435Z,3.35
2022-09-28T21:06:29.562Z,3.28
2022-09-28T21:08:56.651Z,3.78
2022-09-28T21:11:25.074Z,3.88
2022-09-28T21:13:53.763Z,3.45
2022-09-28T21:18:47.922Z,4.35
2022-09-28T21:21:17.831Z,4.10
2022-09-28T21:23:45.070Z,3.85
2022-09-28T21:26:26.313Z,4.13
2022-09-28T21:29:01.591Z,3.65
2022-09-28T21:31:32.586Z,3.72
2022-09-28T21:33:59.530Z,3.90
2022-09-28T21:36:26.341Z,4.10
2022-09-28T21:38:55.078Z,4.22
2022-09-28T21:43:48.545Z,4.07
2022-09-28T21:46:15.306Z,3.75
2022-09-28T21:48:42.074Z,4.25
2022-09-28T21:51:12.715Z,5.38
2022-09-28T21:53:39.636Z,4.50
2022-09-28T21:56:09.448Z,4.60
2022-09-28T21:58:37.071Z,4.10
2022-09-28T22:01:12.114Z,4.40
2022-09-28T22:03:39.051Z,3.95
2022-09-28T22:06:06.196Z,4.43
2022-09-28T22:08:33.921Z,4.40
2022-09-28T22:11:06.488Z,10.00
2022-09-28T22:13:35.498Z,8.75
2022-09-28T22:16:02.815Z,8.60
2022-09-28T22:18:31.814Z,6.10
2022-09-28T22:21:04.209Z,5.65
2022-09-28T22:23:30.965Z,6.15
2022-09-28T22:26:03.397Z,6.00
2022-09-28T22:28:30.047Z,6.00
2022-09-28T22:30:57.728Z,5.90
2022-09-28T22:33:25.084Z,5.63
2022-09-28T22:35:52.446Z,5.30
2022-09-28T22:38:20.570Z,4.63
2022-09-28T22:40:51.309Z,4.50
2022-09-28T22:43:18.864Z,4.28
2022-09-28T22:45:45.795Z,4.40
2022-09-28T22:48:13.150Z,4.20
2022-09-28T22:50:46.938Z,3.90
2022-09-28T22:53:14.128Z,3.90
2022-09-28T22:55:41.479Z,3.97
2022-09-28T22:58:08.144Z,3.80
2022-09-28T23:00:34.810Z,3.47
2022-09-28T23:03:01.735Z,3.85
2022-09-28T23:05:28.471Z,4.25
2022-09-28T23:07:55.169Z,4.18
2022-09-28T23:10:21.864Z,4.18
2022-09-28T23:12:48.607Z,3.50
2022-09-28T23:15:15.534Z,3.50
2022-09-28T23:17:42.169Z,3.83
2022-09-28T23:20:09.206Z,4.18
2022-09-28T23:22:35.849Z,3.63
2022-09-28T23:25:02.533Z,3.80
2022-09-28T23:27:29.263Z,4.00
2022-09-28T23:29:55.904Z,3.83
2022-09-28T23:32:22.679Z,3.63
2022-09-28T23:34:49.369Z,3.78
2022-09-28T23:37:16.125Z,3.63
2022-09-28T23:39:43.637Z,3.92
2022-09-28T23:42:10.286Z,3.90
2022-09-28T23:44:36.987Z,4.10
2022-09-28T23:47:03.675Z,3.92
2022-09-28T23:49:30.524Z,3.60
2022-09-28T23:51:57.174Z,4.72
2022-09-28T23:54:23.951Z,3.80
2022-09-28T23:56:50.727Z,4.53
2022-09-28T23:59:17.458Z,4.25
